createdAt,value
2022-11-20T00:00:18.859Z,23.67
2022-11-20T00:02:45.637Z,24.10
2022-11-20T00:05:12.373Z,23.10
2022-11-20T00:07:39.094Z,23.40
2022-11-20T00:10:06.252Z,23.17
2022-11-20T00:12:32.953Z,23.73
2022-11-20T00:14:59.691Z,23.97
2022-11-20T00:17:26.447Z,23.27
2022-11-20T00:19:53.106Z,24.53
2022-11-20T00:22:19.825Z,23.53
2022-11-20T00:24:46.499Z,23.43
2022-11-20T00:27:13.236Z,25.30
2022-11-20T00:29:39.993Z,23.73
2022-11-20T00:32:06.656Z,23.80
2022-11-20T00:34:33.307Z,23.90
2022-11-20T00:36:59.972Z,22.80
2022-11-20T00:39:26.642Z,22.07
2022-11-20T00:41:55.291Z,24.37
2022-11-20T00:44:21.975Z,25.20
2022-11-20T00:46:48.628Z,24.73
2022-11-20T00:49:15.292Z,25.77
2022-11-20T00:51:41.953Z,24.47
2022-11-20T00:54:08.682Z,22.40
2022-11-20T00:56:35.382Z,23.33
2022-11-20T00:59:02.293Z,23.53
2022-11-20T01:01:32.621Z,24.07
2022-11-20T01:04:01.192Z,23.20
2022-11-20T01:06:35.735Z,23.80
2022-11-20T01:09:07.041Z,22.80
2022-11-20T01:11:37.223Z,22.73
2022-11-20T01:14:06.316Z,23.67
2022-11-20T01:16:41.546Z,23.60
2022-11-20T01:19:17.645Z,21.97
2022-11-20T01:21:46.692Z,23.50
2022-11-20T01:24:15.439Z,24.57
2022-11-20T01:26:44.542Z,24.00
2022-11-20T01:29:14.966Z,24.30
2022-11-20T01:31:42.294Z,24.17
2022-11-20T01:34:12.885Z,22.73
2022-11-20T01:36:40.647Z,24.20
2022-11-20T01:39:13.236Z,24.87
2022-11-20T01:41:58.531Z,23.20
2022-11-20T01:44:54.915Z,23.73
2022-11-20T01:47:28.435Z,25.53
2022-11-20T01:50:06.005Z,24.17
2022-11-20T01:52:53.040Z,27.43
2022-11-20T01:55:24.738Z,25.17
2022-11-20T01:57:51.789Z,25.03
2022-11-20T02:00:20.765Z,23.83
2022-11-20T02:02:52.296Z,25.10
2022-11-20T02:05:29.556Z,23.93
2022-11-20T02:07:58.710Z,24.93
2022-11-20T02:10:26.745Z,24.43
2022-11-20T02:13:12.656Z,26.07
2022-11-20T02:15:39.488Z,23.47
2022-11-20T02:18:07.386Z,24.97
2022-11-20T02:20:34.107Z,23.50
2022-11-20T02:23:15.760Z,23.43
2022-11-20T02:25:43.857Z,23.83
2022-11-20T02:28:11.183Z,23.43
2022-11-20T02:30:37.923Z,25.23
2022-11-20T02:33:04.579Z,23.20
2022-11-20T02:35:31.409Z,22.40
2022-11-20T02:38:02.326Z,24.17
2022-11-20T02:40:29.422Z,24.23
2022-11-20T02:42:57.092Z,24.20
2022-11-20T02:45:25.004Z,22.47
2022-11-20T02:47:52.594Z,21.80
2022-11-20T02:50:19.622Z,23.37
2022-11-20T02:52:46.391Z,22.10
2022-11-20T02:55:13.174Z,23.73
2022-11-20T02:57:39.852Z,23.33
2022-11-20T03:00:07.880Z,23.90
2022-11-20T03:02:34.712Z,24.53
2022-11-20T03:05:01.533Z,24.60
2022-11-20T03:07:28.267Z,23.83
2022-11-20T03:09:55.086Z,22.63
2022-11-20T03:12:21.738Z,23.00
2022-11-20T03:14:52.873Z,24.23
2022-11-20T03:17:20.262Z,23.47
2022-11-20T03:19:46.961Z,24.50
2022-11-20T03:22:13.701Z,23.87
2022-11-20T03:24:40.371Z,24.03
2022-11-20T03:27:07.084Z,23.60
2022-11-20T03:29:33.765Z,24.60
2022-11-20T03:32:00.486Z,24.13
2022-11-20T03:34:27.165Z,24.37
2022-11-20T03:36:53.803Z,23.83
2022-11-20T03:39:20.715Z,23.47
2022-11-20T03:41:47.605Z,23.47
2022-11-20T03:44:14.311Z,24.63
2022-11-20T03:46:41.039Z,23.80
2022-11-20T03:49:07.702Z,24.50
2022-11-20T03:51:36.247Z,23.90
2022-11-20T03:54:07.564Z,23.20
2022-11-20T03:56:36.740Z,24.90
2022-11-20T03:59:04.312Z,24.10
2022-11-20T04:01:34.095Z,23.73
2022-11-20T04:04:00.844Z,23.27
2022-11-20T04:06:35.180Z,24.60
2022-11-20T04:09:01.910Z,24.37
2022-11-20T04:11:31.040Z,24.47
2022-11-20T04:14:00.600Z,24.67
2022-11-20T04:16:29.821Z,26.00
2022-11-20T04:18:58.928Z,25.77
2022-11-20T04:21:26.754Z,25.33
2022-11-20T04:23:54.541Z,24.43
2022-11-20T04:26:22.993Z,24.33
2022-11-20T04:28:49.645Z,24.30
2022-11-20T04:31:19.067Z,24.90
2022-11-20T04:33:46.273Z,24.80
2022-11-20T04:36:18.513Z,24.53
2022-11-20T04:38:46.055Z,26.23
2022-11-20T04:41:17.375Z,25.53
2022-11-20T04:43:49.180Z,25.33
2022-11-20T04:46:16.447Z,26.70
2022-11-20T04:48:43.178Z,26.07
2022-11-20T04:51:09.856Z,26.37
2022-11-20T04:53:36.552Z,26.13
2022-11-20T04:56:05.925Z,32.72
2022-11-20T04:58:33.101Z,25.33
2022-11-20T05:01:06.922Z,25.13
2022-11-20T05:03:36.384Z,25.40
2022-11-20T05:06:07.757Z,24.77
2022-11-20T05:08:34.917Z,23.67
2022-11-20T05:11:11.095Z,23.30
2022-11-20T05:13:38.724Z,24.27
2022-11-20T05:16:11.123Z,23.37
2022-11-20T05:18:39.036Z,23.90
2022-11-20T05:23:41.774Z,25.23
2022-11-20T05:26:15.575Z,24.47
2022-11-20T05:28:42.350Z,25.23
2022-11-20T05:31:14.382Z,24.47
2022-11-20T05:33:42.639Z,27.17
2022-11-20T05:36:10.332Z,25.90
2022-11-20T05:38:37.026Z,24.17
2022-11-20T05:41:15.503Z,25.23
2022-11-20T05:43:44.301Z,25.33
2022-11-20T05:46:13.333Z,26.07
2022-11-20T05:48:42.246Z,25.57
2022-11-20T05:51:10.971Z,23.93
2022-11-20T05:53:39.128Z,25.80
2022-11-20T05:56:13.846Z,24.87
2022-11-20T05:58:41.162Z,25.73
2022-11-20T06:01:18.016Z,26.50
2022-11-20T06:03:48.252Z,25.77
2022-11-20T06:06:16.491Z,27.20
2022-11-20T06:08:43.630Z,25.60
2022-11-20T06:11:12.487Z,24.03
2022-11-20T06:13:42.273Z,25.17
2022-11-20T06:16:10.274Z,25.83
2022-11-20T06:18:37.485Z,26.40
2022-11-20T06:21:09.845Z,26.20
2022-11-20T06:23:37.122Z,26.47
2022-11-20T06:26:06.166Z,25.77
2022-11-20T06:28:33.179Z,25.57
2022-11-20T06:31:00.040Z,25.13
2022-11-20T06:33:26.998Z,26.87
2022-11-20T06:36:00.012Z,25.67
2022-11-20T06:38:29.087Z,26.60
2022-11-20T06:40:56.371Z,24.93
2022-11-20T06:43:23.938Z,26.40
2022-11-20T06:45:54.868Z,28.60
2022-11-20T06:48:21.877Z,24.80
2022-11-20T06:50:48.674Z,24.27
2022-11-20T06:53:15.372Z,26.23
2022-11-20T06:55:46.421Z,26.37
2022-11-20T06:58:14.629Z,25.93
2022-11-20T07:00:41.924Z,26.57
2022-11-20T07:03:10.570Z,25.10
2022-11-20T07:05:38.010Z,26.00
2022-11-20T07:08:05.629Z,26.30
2022-11-20T07:10:33.166Z,27.10
2022-11-20T07:13:00.606Z,26.83
2022-11-20T07:15:27.669Z,26.23
2022-11-20T07:17:54.547Z,24.23
2022-11-20T07:20:21.328Z,26.90
2022-11-20T07:22:48.010Z,25.40
2022-11-20T07:25:14.731Z,26.17
2022-11-20T07:27:41.477Z,26.80
2022-11-20T07:30:08.507Z,25.80
2022-11-20T07:32:35.237Z,25.67
2022-11-20T07:35:01.975Z,25.60
2022-11-20T07:37:28.736Z,26.73
2022-11-20T07:39:55.408Z,25.37
2022-11-20T07:42:22.066Z,27.87
2022-11-20T07:44:48.756Z,26.87
2022-11-20T07:47:15.469Z,26.17
2022-11-20T07:49:42.126Z,36.87
2022-11-20T07:52:08.800Z,30.37
2022-11-20T07:54:35.459Z,30.07
2022-11-20T07:57:02.122Z,29.50
2022-11-20T07:59:28.783Z,26.63
2022-11-20T08:01:56.114Z,24.37
2022-11-20T08:04:22.781Z,24.17
2022-11-20T08:06:49.699Z,24.63
2022-11-20T08:09:16.376Z,24.53
2022-11-20T08:12:01.844Z,25.87
2022-11-20T08:14:28.722Z,25.80
2022-11-20T08:16:55.486Z,29.93
2022-11-20T08:19:22.498Z,26.50
2022-11-20T08:21:49.429Z,25.43
2022-11-20T08:24:16.197Z,26.67
2022-11-20T08:26:42.942Z,29.70
2022-11-20T08:29:09.747Z,25.97
2022-11-20T08:31:36.641Z,27.07
2022-11-20T08:34:08.754Z,26.90
2022-11-20T08:36:36.670Z,27.07
2022-11-20T08:39:04.271Z,24.97
2022-11-20T08:41:33.799Z,25.83
2022-11-20T08:44:03.040Z,24.93
2022-11-20T08:46:34.872Z,24.67
2022-11-20T08:49:01.655Z,25.33
2022-11-20T08:51:28.346Z,25.53
2022-11-20T08:53:55.067Z,26.03
2022-11-20T08:56:21.738Z,26.80
2022-11-20T08:59:17.936Z,26.47
2022-11-20T09:01:35.196Z,25.67
2022-11-20T09:04:01.916Z,27.87
2022-11-20T09:06:28.589Z,27.73
2022-11-20T09:08:55.814Z,28.67
2022-11-20T09:11:23.044Z,26.40
2022-11-20T09:13:50.240Z,30.83
2022-11-20T09:16:16.947Z,29.57
2022-11-20T09:18:43.826Z,27.87
2022-11-20T09:21:13.889Z,27.10
2022-11-20T09:23:41.161Z,26.20
2022-11-20T09:26:12.811Z,24.90
2022-11-20T09:28:39.654Z,26.57
2022-11-20T09:31:08.221Z,27.00
2022-11-20T09:33:35.690Z,24.93
2022-11-20T09:36:02.376Z,26.60
2022-11-20T09:38:29.206Z,25.23
2022-11-20T09:41:37.414Z,25.83
2022-11-20T09:44:26.844Z,25.43
2022-11-20T09:47:03.552Z,25.30
2022-11-20T09:49:39.019Z,26.00
2022-11-20T09:52:31.428Z,26.23
2022-11-20T09:54:58.799Z,26.47
2022-11-20T09:57:35.224Z,25.67
2022-11-20T10:00:05.726Z,27.13
2022-11-20T10:02:42.064Z,28.43
2022-11-20T10:05:32.534Z,28.40
2022-11-20T10:08:25.124Z,26.90
2022-11-20T10:11:16.995Z,24.67
2022-11-20T10:14:05.496Z,24.47
2022-11-20T10:16:56.303Z,25.67
2022-11-20T10:19:45.403Z,26.23
2022-11-20T10:22:36.782Z,22.90
2022-11-20T10:25:25.410Z,24.07
2022-11-20T10:28:19.304Z,26.43
2022-11-20T10:30:50.065Z,28.83
2022-11-20T10:33:23.610Z,26.63
2022-11-20T10:36:15.842Z,24.83
2022-11-20T10:38:54.885Z,24.20
2022-11-20T10:41:30.858Z,23.63
2022-11-20T10:44:37.158Z,22.93
2022-11-20T10:47:06.275Z,23.17
2022-11-20T10:49:34.717Z,23.63
2022-11-20T10:52:14.300Z,20.53
2022-11-20T10:55:02.708Z,21.13
2022-11-20T10:57:57.542Z,21.07
2022-11-20T11:00:24.356Z,21.90
2022-11-20T11:02:54.076Z,23.33
2022-11-20T11:05:38.857Z,21.57
2022-11-20T11:08:13.200Z,22.90
2022-11-20T11:10:55.706Z,22.03
2022-11-20T11:13:27.746Z,22.47
2022-11-20T11:15:55.202Z,20.67
2022-11-20T11:18:28.248Z,17.57
2022-11-20T11:20:57.076Z,19.13
2022-11-20T11:23:35.047Z,20.43
2022-11-20T11:26:04.677Z,20.20
2022-11-20T11:28:31.668Z,18.43
2022-11-20T11:30:58.639Z,17.33
2022-11-20T11:33:27.884Z,19.57
2022-11-20T11:36:04.141Z,24.77
2022-11-20T11:38:41.607Z,21.50
2022-11-20T11:41:16.267Z,19.87
2022-11-20T11:44:20.528Z,16.37
2022-11-20T11:46:58.785Z,16.50
2022-11-20T11:49:25.902Z,16.93
2022-11-20T11:52:09.614Z,16.57
2022-11-20T11:54:45.248Z,15.83
2022-11-20T11:57:41.893Z,15.30
2022-11-20T12:00:21.711Z,16.20
2022-11-20T12:02:51.344Z,15.27
2022-11-20T12:05:22.896Z,14.43
2022-11-20T12:08:06.952Z,12.77
2022-11-20T12:10:39.018Z,12.87
2022-11-20T12:13:34.471Z,11.53
2022-11-20T12:16:02.567Z,12.63
2022-11-20T12:18:30.121Z,12.50
2022-11-20T12:21:21.478Z,13.57
2022-11-20T12:24:19.272Z,11.13
2022-11-20T12:27:04.558Z,9.60
2022-11-20T12:29:49.358Z,7.97
2022-11-20T12:32:15.995Z,6.83
2022-11-20T12:35:10.068Z,6.33
2022-11-20T12:38:06.322Z,6.37
2022-11-20T12:41:01.662Z,5.97
2022-11-20T12:44:23.490Z,5.37
2022-11-20T12:47:20.347Z,6.13
2022-11-20T12:50:20.872Z,6.63
2022-11-20T12:53:05.314Z,7.40
2022-11-20T12:55:42.986Z,9.30
2022-11-20T12:58:16.852Z,8.80
2022-11-20T13:00:57.556Z,9.60
2022-11-20T13:03:24.259Z,10.90
2022-11-20T13:06:05.811Z,9.47
2022-11-20T13:08:39.460Z,9.57
2022-11-20T13:11:08.926Z,7.60
2022-11-20T13:13:50.363Z,7.47
2022-11-20T13:16:39.345Z,8.83
2022-11-20T13:19:14.141Z,8.43
2022-11-20T13:21:44.855Z,8.27
2022-11-20T13:24:20.952Z,8.93
2022-11-20T13:26:48.403Z,9.93
2022-11-20T13:29:21.319Z,9.73
2022-11-20T13:31:49.649Z,9.80
2022-11-20T13:34:27.570Z,9.53
2022-11-20T13:36:57.055Z,10.70
2022-11-20T13:39:35.542Z,11.33
2022-11-20T13:42:21.700Z,10.00
2022-11-20T13:44:54.274Z,10.33
2022-11-20T13:47:26.255Z,10.20
2022-11-20T13:49:57.592Z,10.07
2022-11-20T13:52:48.738Z,11.07
2022-11-20T13:55:27.698Z,10.60
2022-11-20T13:58:03.620Z,10.03
2022-11-20T14:00:30.530Z,10.80
2022-11-20T14:03:06.428Z,10.57
2022-11-20T14:05:39.474Z,10.20
2022-11-20T14:08:11.658Z,13.87
2022-11-20T14:10:40.191Z,12.93
2022-11-20T14:13:20.633Z,12.27
2022-11-20T14:15:47.558Z,10.07
2022-11-20T14:18:25.220Z,10.30
2022-11-20T14:20:51.987Z,9.90
2022-11-20T14:23:30.296Z,10.47
2022-11-20T14:25:57.779Z,11.37
2022-11-20T14:28:29.881Z,10.73
2022-11-20T14:30:58.129Z,9.87
2022-11-20T14:33:27.287Z,9.27
2022-11-20T14:35:56.367Z,10.07
2022-11-20T14:38:27.501Z,11.63
2022-11-20T14:40:54.464Z,13.00
2022-11-20T14:43:27.319Z,17.40
2022-11-20T14:46:06.311Z,18.60
2022-11-20T14:48:47.804Z,19.97
2022-11-20T14:51:29.846Z,19.60
2022-11-20T14:53:56.493Z,19.23
2022-11-20T14:56:25.138Z,18.87
2022-11-20T14:59:00.650Z,16.03
2022-11-20T15:01:29.445Z,16.87
2022-11-20T15:04:11.818Z,16.27
2022-11-20T15:06:39.221Z,16.10
2022-11-20T15:09:14.006Z,23.53
2022-11-20T15:11:51.622Z,20.67
2022-11-20T15:14:18.336Z,20.13
2022-11-20T15:16:45.015Z,21.43
2022-11-20T15:19:20.726Z,18.53
2022-11-20T15:21:47.817Z,16.57
2022-11-20T15:24:15.169Z,16.37
2022-11-20T15:26:42.608Z,13.60
2022-11-20T15:29:15.172Z,13.67
2022-11-20T15:31:44.240Z,14.10
2022-11-20T15:34:15.311Z,13.50
2022-11-20T15:36:43.273Z,12.53
2022-11-20T15:39:10.347Z,14.37
2022-11-20T15:41:37.516Z,13.80
2022-11-20T15:44:05.593Z,15.23
2022-11-20T15:46:39.262Z,19.03
2022-11-20T15:49:06.887Z,15.70
2022-11-20T15:51:39.277Z,16.73
2022-11-20T15:54:14.994Z,15.90
2022-11-20T15:56:41.719Z,15.93
2022-11-20T15:59:08.572Z,14.63
2022-11-20T16:01:35.731Z,16.77
2022-11-20T16:04:02.620Z,19.03
2022-11-20T16:06:29.390Z,17.87
2022-11-20T16:08:57.276Z,16.90
2022-11-20T16:11:23.968Z,16.30
2022-11-20T16:14:09.382Z,17.17
2022-11-20T16:16:38.676Z,15.73
2022-11-20T16:19:05.559Z,16.03
2022-11-20T16:21:32.641Z,16.03
2022-11-20T16:24:05.359Z,16.03
2022-11-20T16:26:32.922Z,15.40
2022-11-20T16:29:01.260Z,17.07
2022-11-20T16:31:28.049Z,15.77
2022-11-20T16:33:56.744Z,15.43
2022-11-20T16:36:25.867Z,15.40
2022-11-20T16:38:56.455Z,14.73
2022-11-20T16:41:24.224Z,15.03
2022-11-20T16:43:56.980Z,14.60
2022-11-20T16:46:25.454Z,16.90
2022-11-20T16:49:01.036Z,15.43
2022-11-20T16:51:29.533Z,16.13
2022-11-20T16:53:57.331Z,15.60
2022-11-20T16:56:26.419Z,14.33
2022-11-20T16:58:56.422Z,15.67
2022-11-20T17:01:24.691Z,14.87
2022-11-20T17:03:58.627Z,15.07
2022-11-20T17:06:28.165Z,15.27
2022-11-20T17:08:56.324Z,14.87
2022-11-20T17:11:23.860Z,16.73
2022-11-20T17:13:51.063Z,16.83
2022-11-20T17:16:23.111Z,17.17
2022-11-20T17:18:50.371Z,19.00
2022-11-20T17:21:18.949Z,18.77
2022-11-20T17:37:13.326Z,19.13
2022-11-20T17:39:40.891Z,17.40
2022-11-20T17:42:26.016Z,19.53
2022-11-20T17:44:52.757Z,18.37
2022-11-20T17:47:20.730Z,20.83
2022-11-20T17:49:47.408Z,19.27
2022-11-20T17:52:16.084Z,20.87
2022-11-20T17:54:42.735Z,22.47
2022-11-20T17:57:28.953Z,23.03
2022-11-20T17:59:55.629Z,24.53
2022-11-20T18:02:22.296Z,23.33
2022-11-20T18:04:49.919Z,22.87
2022-11-20T18:07:16.673Z,20.30
2022-11-20T18:09:43.563Z,19.80
2022-11-20T18:12:10.268Z,31.03
2022-11-20T18:14:37.080Z,29.97
2022-11-20T18:17:05.252Z,22.77
2022-11-20T18:19:41.115Z,30.70
2022-11-20T18:22:16.578Z,18.97
2022-11-20T18:24:43.820Z,19.13
2022-11-20T18:27:19.284Z,20.47
2022-11-20T18:29:48.642Z,24.60
2022-11-20T18:32:15.405Z,24.40
2022-11-20T18:34:42.113Z,23.67
2022-11-20T18:37:09.792Z,22.63
2022-11-20T18:39:36.939Z,21.50
2022-11-20T18:42:22.259Z,21.37
2022-11-20T18:44:51.800Z,24.27
2022-11-20T18:47:19.907Z,23.73
2022-11-20T18:49:52.880Z,24.90
2022-11-20T18:52:27.993Z,23.13
2022-11-20T18:54:55.282Z,22.43
2022-11-20T18:57:28.144Z,20.17
2022-11-20T18:59:55.983Z,19.87
2022-11-20T19:02:23.146Z,20.90
2022-11-20T19:04:49.896Z,21.47
2022-11-20T19:07:17.490Z,21.83
2022-11-20T19:09:48.040Z,19.23
2022-11-20T19:12:15.102Z,18.93
2022-11-20T19:14:41.953Z,19.00
2022-11-20T19:17:09.480Z,19.50
2022-11-20T19:19:37.393Z,19.20
2022-11-20T19:22:04.247Z,18.53
2022-11-20T19:24:31.385Z,17.60
2022-11-20T19:26:59.434Z,18.30
2022-11-20T19:29:27.067Z,17.63
2022-11-20T19:31:54.007Z,18.10
2022-11-20T19:34:20.848Z,23.30
2022-11-20T19:36:48.299Z,19.67
2022-11-20T19:39:15.077Z,20.83
2022-11-20T19:41:42.452Z,21.93
2022-11-20T19:44:14.634Z,21.23
2022-11-20T19:46:42.010Z,20.30
2022-11-20T19:49:11.642Z,20.00
2022-11-20T19:51:39.938Z,22.33
2022-11-20T19:54:07.634Z,21.00
2022-11-20T19:56:34.838Z,21.20
2022-11-20T19:59:01.729Z,20.57
2022-11-20T20:01:30.957Z,22.23
2022-11-20T20:04:02.531Z,21.10
2022-11-20T20:06:29.645Z,19.40
2022-11-20T20:08:57.385Z,19.40
2022-11-20T20:11:25.769Z,20.63
2022-11-20T20:13:53.424Z,18.37
2022-11-20T20:16:23.074Z,17.73
2022-11-20T20:18:49.803Z,18.00
2022-11-20T20:21:18.588Z,18.80
2022-11-20T20:23:49.901Z,16.97
2022-11-20T20:26:16.568Z,16.23
2022-11-20T20:28:43.233Z,16.77
2022-11-20T20:31:12.744Z,15.90
2022-11-20T20:33:40.641Z,16.50
2022-11-20T20:36:09.712Z,16.10
2022-11-20T20:38:36.592Z,14.70
2022-11-20T20:41:03.747Z,17.47
2022-11-20T20:43:31.430Z,16.07
2022-11-20T20:45:58.199Z,18.17
2022-11-20T20:48:25.460Z,22.73
2022-11-20T20:53:59.566Z,50.73
2022-11-20T20:56:26.353Z,46.83
2022-11-20T20:58:53.024Z,33.43
2022-11-20T21:01:20.542Z,27.67
2022-11-20T21:03:47.330Z,24.17
2022-11-20T21:06:14.729Z,23.00
2022-11-20T21:08:44.129Z,20.03
2022-11-20T21:11:13.692Z,17.17
2022-11-20T21:13:42.886Z,16.13
2022-11-20T21:16:10.865Z,14.57
2022-11-20T21:18:38.077Z,12.83
2022-11-20T21:21:25.344Z,12.30
2022-11-20T21:23:53.428Z,10.97
2022-11-20T21:26:21.447Z,11.43
2022-11-20T21:28:49.794Z,10.03
2022-11-20T21:31:22.411Z,12.10
2022-11-20T21:33:51.075Z,9.43
2022-11-20T21:36:20.079Z,9.77
2022-11-20T21:38:47.732Z,10.33
2022-11-20T21:41:15.431Z,9.67
2022-11-20T21:43:45.048Z,8.80
2022-11-20T21:46:14.502Z,9.90
2022-11-20T21:48:42.895Z,8.57
2022-11-20T21:51:14.995Z,8.27
2022-11-20T21:53:43.166Z,5.87
2022-11-20T21:56:15.253Z,6.30
2022-11-20T21:58:45.056Z,5.93
2022-11-20T22:01:13.283Z,5.63
2022-11-20T22:03:40.803Z,5.03
2022-11-20T22:06:09.058Z,4.97
2022-11-20T22:08:37.486Z,4.87
2022-11-20T22:11:12.920Z,4.50
2022-11-20T22:13:58.727Z,4.03
2022-11-20T22:16:25.964Z,4.33
2022-11-20T22:18:55.591Z,4.23
2022-11-20T22:21:27.287Z,3.90
2022-11-20T22:23:55.080Z,4.07
2022-11-20T22:26:24.217Z,3.80
2022-11-20T22:28:52.843Z,4.20
2022-11-20T22:31:21.284Z,3.97
2022-11-20T22:33:48.432Z,4.10
2022-11-20T22:36:20.202Z,3.60
2022-11-20T22:38:47.113Z,3.73
2022-11-20T22:41:16.525Z,3.87
2022-11-20T22:43:44.178Z,3.10
2022-11-20T22:46:11.937Z,3.30
2022-11-20T22:48:41.795Z,3.07
2022-11-20T22:51:11.408Z,3.00
2022-11-20T22:53:38.498Z,2.80
2022-11-20T22:56:09.460Z,3.23
2022-11-20T22:58:37.747Z,2.60
2022-11-20T23:01:11.353Z,2.27
2022-11-20T23:03:39.023Z,2.90
2022-11-20T23:06:06.223Z,2.40
2022-11-20T23:08:33.300Z,2.50
2022-11-20T23:11:01.203Z,2.70
2022-11-20T23:13:28.515Z,2.50
2022-11-20T23:16:00.037Z,2.70
2022-11-20T23:18:26.694Z,2.23
2022-11-20T23:20:53.340Z,2.70
2022-11-20T23:23:20.005Z,2.30
2022-11-20T23:25:46.664Z,2.47
2022-11-20T23:28:13.383Z,2.40
2022-11-20T23:30:40.060Z,2.73
2022-11-20T23:33:06.734Z,2.80
2022-11-20T23:35:39.344Z,2.80
2022-11-20T23:38:06.076Z,2.20
2022-11-20T23:40:38.682Z,2.90
2022-11-20T23:43:16.869Z,2.70
2022-11-20T23:45:48.243Z,3.03
2022-11-20T23:48:15.415Z,2.60
2022-11-20T23:50:43.663Z,2.60
2022-11-20T23:53:11.596Z,2.57
2022-11-20T23:55:38.559Z,2.87
2022-11-20T23:58:06.284Z,2.60
